Time;durP1;ratioP1;P1;durP2;ratioP2;P2;SDS_P1;SDS_P2;PMS_P1;PMS_P2;Temp;Humidity;BMP_temperature;BMP_pressure;BME280_temperature;BME280_humidity;BME280_pressure;Samples;Min_cycle;Max_cycle;Signal;HPM_P1;HPM_P2
2022/10/30 00:00:55;;;;;;;18.92;9.23;;;14.50;99.90;;;;;;5039826;28;20047;-93
2022/10/30 00:03:20;;;;;;;19.33;9.43;;;14.50;99.90;;;;;;5039867;28;20106;-91
2022/10/30 00:05:48;;;;;;;27.52;10.07;;;14.40;99.90;;;;;;5023421;28;20036;-91
2022/10/30 00:08:17;;;;;;;19.45;9.43;;;14.40;99.90;;;;;;5072539;28;20455;-91
2022/10/30 00:10:43;;;;;;;17.83;9.25;;;14.30;99.90;;;;;;5073200;28;20040;-90
2022/10/30 00:13:10;;;;;;;18.73;8.85;;;14.30;99.90;;;;;;5066744;28;20041;-92
2022/10/30 00:15:37;;;;;;;23.02;9.20;;;14.30;99.90;;;;;;5056121;28;20126;-90
2022/10/30 00:18:02;;;;;;;;;;;14.30;99.90;;;;;;5056221;28;20115;-91
2022/10/30 00:20:28;;;;;;;16.63;8.27;;;14.20;99.90;;;;;;5039928;28;19970;-91
2022/10/30 00:22:54;;;;;;;17.42;9.57;;;13.40;99.90;;;;;;5056012;28;20549;-92
2022/10/30 00:25:22;;;;;;;15.90;8.23;;;14.20;99.90;;;;;;5022565;28;20385;-92
2022/10/30 00:27:47;;;;;;;18.50;9.18;;;14.20;99.90;;;;;;5056402;28;20115;-92
2022/10/30 00:30:15;;;;;;;18.60;8.77;;;14.10;99.90;;;;;;5023393;28;20071;-91
2022/10/30 00:32:41;;;;;;;15.90;8.52;;;14.00;99.90;;;;;;5039637;28;20553;-91
2022/10/30 00:35:09;;;;;;;16.80;8.50;;;14.00;99.90;;;;;;5022869;28;20067;-91
2022/10/30 00:37:34;;;;;;;21.95;9.48;;;14.00;99.90;;;;;;5039152;28;20033;-92
2022/10/30 00:40:00;;;;;;;21.23;9.10;;;13.90;99.90;;;;;;5038850;28;20037;-91
2022/10/30 00:42:29;;;;;;;19.75;8.63;;;13.90;99.90;;;;;;5039176;28;20307;-91
2022/10/30 00:44:55;;;;;;;17.55;8.82;;;13.90;99.90;;;;;;5072970;28;20037;-92
2022/10/30 00:47:36;;;;;;;21.10;9.05;;;13.90;99.90;;;;;;5056281;28;20048;-91
2022/10/30 00:50:16;;;;;;;17.25;8.82;;;13.90;99.90;;;;;;5055596;28;20070;-92
2022/10/30 00:52:49;;;;;;;18.52;9.05;;;13.80;99.90;;;;;;5070289;28;20094;-92
2022/10/30 00:55:24;;;;;;;17.98;8.68;;;13.80;99.90;;;;;;5055505;28;20043;-91
2022/10/30 00:57:52;;;;;;;21.58;8.80;;;13.80;99.90;;;;;;5071811;28;20285;-92
2022/10/30 01:00:23;;;;;;;18.88;9.30;;;13.80;99.90;;;;;;5045056;28;20498;-90
2022/10/30 01:02:50;;;;;;;20.60;9.23;;;13.50;99.90;;;;;;5043307;28;20039;-90
2022/10/30 01:05:18;;;;;;;19.02;9.32;;;13.80;99.90;;;;;;5040064;28;20116;-92
2022/10/30 01:07:44;;;;;;;17.80;9.05;;;13.80;99.90;;;;;;5038251;28;20036;-91
2022/10/30 01:10:12;;;;;;;19.30;8.85;;;13.80;99.90;;;;;;5055498;28;20403;-92
2022/10/30 01:12:38;;;;;;;21.63;8.93;;;13.80;99.90;;;;;;5055217;28;20064;-92
2022/10/30 01:15:05;;;;;;;18.63;9.15;;;14.40;99.90;;;;;;5022466;28;20041;-90
2022/10/30 01:17:30;;;;;;;;;;;13.80;99.90;;;;;;5064978;28;20037;-90
2022/10/30 01:20:19;;;;;;;16.80;9.20;;;13.80;99.90;;;;;;5080378;28;19924;-91
2022/10/30 01:22:45;;;;;;;22.73;8.75;;;13.70;99.90;;;;;;5045410;28;20044;-92
2022/10/30 01:25:22;;;;;;;19.97;9.27;;;13.70;99.90;;;;;;5055139;28;20044;-92
2022/10/30 01:28:03;;;;;;;19.25;9.13;;;13.70;99.90;;;;;;5053457;28;20037;-92
2022/10/30 01:30:50;;;;;;;22.67;8.98;;;13.80;99.90;;;;;;5072174;28;20404;-92
2022/10/30 01:33:27;;;;;;;20.38;8.75;;;13.70;99.90;;;;;;5072229;28;20041;-91
2022/10/30 01:36:21;;;;;;;18.73;8.98;;;13.80;99.90;;;;;;5054141;28;20158;-92
2022/10/30 01:38:48;;;;;;;19.80;8.98;;;13.70;99.90;;;;;;5070067;28;20040;-92
2022/10/30 01:41:14;;;;;;;17.13;8.25;;;13.70;99.90;;;;;;5055173;28;20094;-91
2022/10/30 01:43:41;;;;;;;17.45;8.38;;;13.70;99.90;;;;;;5021675;28;20037;-92
2022/10/30 01:46:42;;;;;;;18.08;9.10;;;13.60;99.90;;;;;;5056244;28;20066;-92
2022/10/30 01:49:37;;;;;;;17.67;8.98;;;13.60;99.90;;;;;;5053154;28;20408;-92
2022/10/30 01:52:30;;;;;;;18.17;8.00;;;13.60;99.90;;;;;;5054933;28;20043;-91
2022/10/30 01:55:09;;;;;;;21.02;8.93;;;13.60;99.90;;;;;;5054104;28;20033;-91
2022/10/30 01:58:01;;;;;;;20.73;9.25;;;13.60;99.90;;;;;;5055307;28;20033;-92
2022/10/30 02:00:27;;;;;;;22.30;9.10;;;13.60;99.90;;;;;;5053635;28;20121;-91
2022/10/30 02:02:54;;;;;;;18.98;9.40;;;13.60;99.90;;;;;;5038780;28;20041;-92
2022/10/30 02:05:42;;;;;;;17.30;9.75;;;13.60;99.90;;;;;;5055991;28;20041;-92
2022/10/30 02:08:07;;;;;;;20.80;7.93;;;13.60;99.90;;;;;;5059595;28;20048;-91
2022/10/30 02:10:35;;;;;;;18.58;8.88;;;13.60;99.90;;;;;;5038831;28;20115;-91
2022/10/30 02:13:02;;;;;;;15.75;8.35;;;13.60;99.90;;;;;;5039348;28;20047;-92
2022/10/30 02:15:28;;;;;;;19.27;8.65;;;13.60;99.90;;;;;;5072447;28;20476;-92
2022/10/30 02:17:54;;;;;;;22.00;9.00;;;13.60;99.90;;;;;;5058598;28;20032;-91
2022/10/30 02:20:20;;;;;;;18.30;9.27;;;13.50;99.90;;;;;;5024791;28;20029;-92
2022/10/30 02:22:46;;;;;;;15.73;8.13;;;13.50;99.90;;;;;;5056028;28;20545;-92
2022/10/30 02:25:13;;;;;;;20.20;9.82;;;13.40;99.90;;;;;;5042143;28;20036;-92
2022/10/30 02:27:38;;;;;;;18.65;9.02;;;13.40;99.90;;;;;;5059482;28;20028;-92
2022/10/30 02:30:05;;;;;;;20.30;8.68;;;13.40;99.90;;;;;;5075569;28;20611;-92
2022/10/30 02:32:30;;;;;;;;;;;13.40;99.90;;;;;;5042942;28;20032;-92
2022/10/30 02:34:56;;;;;;;19.85;9.27;;;13.40;99.90;;;;;;5058108;28;19916;-93
2022/10/30 02:37:23;;;;;;;20.30;8.70;;;13.30;99.90;;;;;;5023691;28;20033;-91
2022/10/30 02:39:49;;;;;;;18.98;9.05;;;13.30;99.90;;;;;;5041934;28;20060;-92
2022/10/30 02:42:15;;;;;;;18.55;8.63;;;13.30;99.90;;;;;;5042323;28;20044;-92
2022/10/30 02:44:40;;;;;;;14.98;9.02;;;13.30;99.90;;;;;;5058812;28;20455;-91
2022/10/30 02:47:06;;;;;;;18.15;9.18;;;13.20;99.90;;;;;;5041624;28;20166;-92
2022/10/30 02:49:32;;;;;;;19.67;9.38;;;13.20;99.90;;;;;;5042180;28;20535;-93
2022/10/30 02:51:57;;;;;;;19.23;9.18;;;13.20;99.90;;;;;;5042207;28;20032;-92
2022/10/30 02:54:24;;;;;;;19.48;8.80;;;13.20;99.90;;;;;;5042313;28;20040;-91
2022/10/30 02:56:50;;;;;;;18.02;9.35;;;13.10;99.90;;;;;;5041586;28;20032;-91
2022/10/30 02:59:15;;;;;;;19.02;8.65;;;13.10;99.90;;;;;;5025250;28;20484;-91
2022/10/30 03:01:41;;;;;;;18.67;8.90;;;13.10;99.90;;;;;;5074958;28;20502;-91
2022/10/30 03:04:07;;;;;;;21.88;9.20;;;13.10;99.90;;;;;;5041394;28;20194;-92
2022/10/30 03:06:32;;;;;;;17.92;9.30;;;13.10;99.90;;;;;;5041724;28;20040;-91
2022/10/30 03:08:58;;;;;;;18.15;9.68;;;13.10;99.90;;;;;;5040581;28;20515;-91
2022/10/30 03:11:24;;;;;;;22.02;9.13;;;13.10;99.90;;;;;;5057748;28;20117;-92
2022/10/30 03:13:50;;;;;;;18.92;8.50;;;13.10;99.90;;;;;;5037823;28;20033;-92
2022/10/30 03:16:21;;;;;;;19.42;9.60;;;13.10;99.90;;;;;;5057634;28;20506;-92
2022/10/30 03:18:48;;;;;;;23.00;10.02;;;13.10;99.90;;;;;;5074394;28;20036;-92
2022/10/30 03:21:16;;;;;;;22.30;10.10;;;13.10;99.90;;;;;;5074003;28;20036;-92
2022/10/30 03:23:42;;;;;;;19.35;9.45;;;13.10;99.90;;;;;;5057879;28;20082;-91
2022/10/30 03:26:08;;;;;;;20.30;9.50;;;13.10;99.90;;;;;;5057188;28;20747;-92
2022/10/30 03:28:34;;;;;;;21.35;9.68;;;13.10;99.90;;;;;;5057337;28;20135;-91
2022/10/30 03:31:02;;;;;;;18.67;8.90;;;13.10;99.90;;;;;;5041221;28;20070;-92
2022/10/30 03:33:28;;;;;;;17.30;8.77;;;13.10;99.90;;;;;;5074407;28;20033;-92
2022/10/30 03:35:55;;;;;;;23.45;9.23;;;13.40;99.90;;;;;;5024544;28;20041;-92
2022/10/30 03:38:21;;;;;;;19.08;9.50;;;13.00;99.90;;;;;;5024682;28;20037;-92
2022/10/30 03:40:46;;;;;;;19.17;9.30;;;13.00;99.90;;;;;;5040707;28;20530;-92
2022/10/30 03:43:12;;;;;;;20.60;9.10;;;13.00;99.90;;;;;;5040907;28;20291;-92
2022/10/30 03:45:38;;;;;;;22.02;9.60;;;12.90;99.90;;;;;;5041413;28;20036;-91
2022/10/30 03:48:05;;;;;;;18.97;9.27;;;12.90;99.90;;;;;;5057155;28;20033;-93
2022/10/30 03:50:31;;;;;;;20.17;9.15;;;12.90;99.90;;;;;;5057671;28;20298;-92
2022/10/30 03:52:57;;;;;;;;;;;12.90;99.90;;;;;;5041487;28;20161;-93
2022/10/30 03:55:24;;;;;;;17.50;9.25;;;12.90;99.90;;;;;;5057032;28;20450;-92
2022/10/30 03:57:49;;;;;;;;;;;12.90;99.90;;;;;;5057858;28;20036;-92
2022/10/30 04:00:17;;;;;;;16.70;9.07;;;12.90;99.90;;;;;;5057509;28;19970;-92
2022/10/30 04:02:50;;;;;;;16.30;8.80;;;12.90;99.90;;;;;;5056744;28;20119;-91
2022/10/30 04:05:18;;;;;;;19.80;9.68;;;12.90;99.90;;;;;;5040158;28;20075;-91
2022/10/30 04:07:44;;;;;;;24.95;10.02;;;13.00;99.90;;;;;;5073670;28;20477;-93
2022/10/30 04:10:13;;;;;;;17.85;9.48;;;12.90;99.90;;;;;;5040843;28;20087;-92
2022/10/30 04:12:39;;;;;;;;;;;12.90;99.90;;;;;;5057212;28;20040;-92
2022/10/30 04:15:07;;;;;;;23.48;9.88;;;12.90;99.90;;;;;;5057113;28;19916;-94
2022/10/30 04:17:33;;;;;;;19.75;8.88;;;13.00;99.90;;;;;;5056893;28;20037;-92
2022/10/30 04:19:59;;;;;;;18.55;9.45;;;12.90;99.90;;;;;;5056722;28;20036;-92
2022/10/30 04:22:25;;;;;;;22.70;9.23;;;12.90;99.90;;;;;;5039615;28;20377;-93
2022/10/30 04:24:52;;;;;;;18.90;9.35;;;12.90;99.90;;;;;;5072532;28;20044;-91
2022/10/30 04:27:19;;;;;;;20.38;9.10;;;12.90;99.90;;;;;;5040443;28;20039;-91
2022/10/30 04:29:45;;;;;;;18.27;9.45;;;12.90;99.90;;;;;;5072931;28;20082;-92
2022/10/30 04:32:11;;;;;;;;;;;12.90;99.90;;;;;;5057152;28;20032;-93
2022/10/30 04:34:38;;;;;;;17.98;9.10;;;12.90;99.90;;;;;;5040819;28;19920;-92
2022/10/30 04:37:07;;;;;;;18.88;9.88;;;12.90;99.90;;;;;;5056704;28;20082;-92
2022/10/30 04:39:33;;;;;;;22.45;9.13;;;12.80;99.90;;;;;;5039317;28;20033;-92
2022/10/30 04:41:58;;;;;;;18.90;9.38;;;13.20;99.90;;;;;;5072798;28;20032;-92
2022/10/30 04:44:24;;;;;;;19.48;10.10;;;12.80;99.90;;;;;;5056390;28;20093;-92
2022/10/30 04:46:51;;;;;;;20.20;10.07;;;12.80;99.90;;;;;;5022555;28;20538;-92
2022/10/30 04:49:17;;;;;;;23.15;10.23;;;12.80;99.90;;;;;;5022406;28;20295;-93
2022/10/30 04:51:42;;;;;;;19.83;9.73;;;12.80;99.90;;;;;;5039555;28;20092;-93
2022/10/30 04:54:08;;;;;;;20.27;9.20;;;12.80;99.90;;;;;;5039480;28;20274;-91
2022/10/30 04:56:34;;;;;;;24.33;9.70;;;12.80;99.90;;;;;;5023628;28;20283;-92
2022/10/30 04:58:59;;;;;;;20.67;9.60;;;12.80;99.90;;;;;;5039739;28;20147;-92
2022/10/30 05:01:25;;;;;;;16.60;9.20;;;12.70;99.90;;;;;;5056159;28;20044;-92
2022/10/30 05:03:51;;;;;;;24.00;9.40;;;12.70;99.90;;;;;;5023261;28;20040;-92
2022/10/30 05:06:28;;;;;;;22.65;9.70;;;12.70;99.90;;;;;;5039263;28;20075;-92
2022/10/30 05:08:55;;;;;;;25.45;10.02;;;12.70;99.90;;;;;;5055228;28;20059;-92
2022/10/30 05:11:20;;;;;;;21.30;9.60;;;12.60;99.90;;;;;;5072295;28;20040;-91
2022/10/30 05:13:46;;;;;;;20.48;9.65;;;12.60;99.90;;;;;;5072586;28;20065;-92
2022/10/30 05:16:12;;;;;;;21.88;9.43;;;12.60;99.90;;;;;;5039255;28;20036;-92
2022/10/30 05:18:38;;;;;;;18.55;9.80;;;12.60;99.90;;;;;;5038707;28;20032;-92
2022/10/30 05:21:03;;;;;;;23.67;9.70;;;12.60;99.90;;;;;;5038826;28;20048;-92
2022/10/30 05:23:29;;;;;;;17.58;9.93;;;12.60;99.90;;;;;;5055682;28;20040;-92
2022/10/30 05:25:55;;;;;;;18.58;9.63;;;12.60;99.90;;;;;;5022503;28;20029;-91
2022/10/30 05:28:20;;;;;;;18.83;9.47;;;12.60;99.90;;;;;;5055761;28;20040;-92
2022/10/30 05:30:46;;;;;;;24.77;10.38;;;12.60;99.90;;;;;;5039172;28;20471;-90
2022/10/30 05:33:16;;;;;;;24.03;11.03;;;12.70;99.90;;;;;;5022102;28;20041;-92
2022/10/30 05:35:42;;;;;;;19.75;9.98;;;12.70;99.90;;;;;;5055698;28;20549;-92
2022/10/30 05:38:07;;;;;;;22.83;9.57;;;12.60;99.90;;;;;;5055322;28;20090;-92
2022/10/30 05:40:34;;;;;;;25.67;10.40;;;12.60;99.90;;;;;;5021208;28;20040;-92
2022/10/30 05:42:59;;;;;;;21.50;9.27;;;12.60;99.90;;;;;;5039272;28;20488;-92
2022/10/30 05:45:25;;;;;;;22.33;10.77;;;12.60;99.90;;;;;;5038869;28;20047;-92
2022/10/30 05:48:09;;;;;;;24.48;10.18;;;12.50;99.90;;;;;;5038436;28;20040;-93
2022/10/30 05:50:35;;;;;;;21.38;10.82;;;12.50;99.90;;;;;;5053834;28;20036;-93
2022/10/30 05:53:03;;;;;;;19.73;10.40;;;12.50;99.90;;;;;;5040628;28;20037;-93
2022/10/30 05:55:30;;;;;;;24.88;10.15;;;12.50;99.90;;;;;;5042674;28;20320;-92
2022/10/30 05:58:01;;;;;;;25.60;10.23;;;12.40;99.90;;;;;;5058926;28;20028;-92
2022/10/30 06:00:29;;;;;;;23.23;10.95;;;12.40;99.90;;;;;;5059867;28;20400;-92
2022/10/30 06:03:03;;;;;;;25.80;10.32;;;12.40;99.90;;;;;;5076139;28;20476;-92
2022/10/30 06:05:30;;;;;;;22.63;10.82;;;12.30;99.90;;;;;;5071706;28;20074;-92
2022/10/30 06:07:56;;;;;;;20.88;10.40;;;12.30;99.90;;;;;;5075385;28;20140;-92
2022/10/30 06:10:23;;;;;;;23.77;9.70;;;12.30;99.90;;;;;;5059676;28;20501;-92
2022/10/30 06:13:00;;;;;;;20.17;9.75;;;12.20;99.90;;;;;;5026256;28;20042;-90
2022/10/30 06:15:27;;;;;;;22.83;9.77;;;12.20;99.90;;;;;;5059915;28;20560;-93
2022/10/30 06:17:53;;;;;;;21.00;10.02;;;12.10;99.90;;;;;;5076158;28;20031;-92
2022/10/30 06:20:21;;;;;;;22.00;10.15;;;12.10;99.90;;;;;;5075589;28;20083;-92
2022/10/30 06:22:54;;;;;;;18.67;9.65;;;12.10;99.90;;;;;;5059370;28;20033;-92
2022/10/30 06:25:20;;;;;;;21.10;10.63;;;12.00;99.90;;;;;;5042332;28;20044;-92
2022/10/30 06:27:46;;;;;;;21.20;10.60;;;12.00;99.90;;;;;;5042177;28;20037;-92
2022/10/30 06:30:12;;;;;;;25.23;10.45;;;12.00;99.90;;;;;;5041663;28;20230;-92
2022/10/30 06:32:37;;;;;;;23.30;10.70;;;12.00;99.90;;;;;;5041906;28;20028;-91
2022/10/30 06:35:03;;;;;;;21.33;9.48;;;12.00;99.90;;;;;;5041766;28;20045;-92
2022/10/30 06:37:29;;;;;;;21.08;10.40;;;12.00;99.90;;;;;;5023126;28;20534;-92
2022/10/30 06:39:55;;;;;;;22.88;11.02;;;12.00;99.90;;;;;;5075177;28;20037;-92
2022/10/30 06:42:21;;;;;;;25.63;10.57;;;12.00;99.90;;;;;;5041953;28;20043;-93
2022/10/30 06:44:47;;;;;;;24.20;10.55;;;12.10;99.90;;;;;;5058325;28;20033;-92
2022/10/30 06:47:14;;;;;;;22.58;11.20;;;12.10;99.90;;;;;;5041907;28;20039;-92
2022/10/30 06:49:39;;;;;;;22.88;11.15;;;12.10;99.90;;;;;;5025500;28;20125;-91
2022/10/30 06:52:05;;;;;;;23.07;11.20;;;12.20;99.90;;;;;;5041863;28;20044;-92
2022/10/30 06:54:31;;;;;;;25.40;11.17;;;12.20;99.90;;;;;;5041901;28;20294;-92
2022/10/30 06:56:56;;;;;;;24.63;11.15;;;12.20;99.90;;;;;;5075143;28;20630;-92
2022/10/30 06:59:22;;;;;;;19.77;10.10;;;12.30;99.90;;;;;;5025687;28;20501;-93
2022/10/30 07:01:48;;;;;;;21.52;10.35;;;12.30;99.90;;;;;;5041939;28;20039;-92
2022/10/30 07:04:14;;;;;;;21.93;10.97;;;12.80;99.90;;;;;;5043012;28;20065;-92
2022/10/30 07:06:39;;;;;;;22.35;10.02;;;12.30;99.90;;;;;;5058537;28;20279;-92
2022/10/30 07:09:05;;;;;;;22.65;10.43;;;12.30;99.90;;;;;;5042107;28;20067;-93
2022/10/30 07:11:31;;;;;;;21.60;10.63;;;12.40;99.90;;;;;;5042557;28;20044;-93
2022/10/30 07:13:57;;;;;;;22.52;10.95;;;12.40;99.90;;;;;;5060905;28;20557;-92
2022/10/30 07:16:22;;;;;;;24.27;10.90;;;12.50;99.90;;;;;;5059498;28;20039;-93
2022/10/30 07:18:48;;;;;;;24.63;11.13;;;11.80;99.90;;;;;;5041855;28;20503;-93
2022/10/30 07:21:14;;;;;;;19.47;10.73;;;12.70;99.90;;;;;;5039571;28;20318;-87
2022/10/30 07:23:39;;;;;;;24.10;10.82;;;12.80;99.90;;;;;;5056337;28;20286;-86
2022/10/30 07:26:06;;;;;;;22.17;10.13;;;13.00;99.90;;;;;;5057386;28;20041;-87
2022/10/30 07:28:32;;;;;;;;;;;13.40;99.90;;;;;;5057498;28;20040;-91
2022/10/30 07:30:58;;;;;;;18.42;9.05;;;13.60;99.90;;;;;;5072924;28;20347;-88
2022/10/30 07:33:23;;;;;;;26.63;10.27;;;13.90;99.90;;;;;;5039748;28;20045;-90
2022/10/30 07:35:49;;;;;;;18.30;10.10;;;14.10;99.90;;;;;;5040076;28;20083;-90
2022/10/30 07:38:16;;;;;;;17.77;8.43;;;14.30;99.90;;;;;;5055443;28;20082;-89
2022/10/30 07:40:42;;;;;;;16.50;8.93;;;14.40;99.90;;;;;;5056695;28;20032;-88
2022/10/30 07:43:12;;;;;;;19.65;8.80;;;14.70;99.90;;;;;;5056294;28;20043;-88
2022/10/30 07:45:38;;;;;;;15.73;8.63;;;15.00;99.90;;;;;;5022481;28;20060;-86
2022/10/30 07:48:04;;;;;;;25.33;8.93;;;15.30;99.90;;;;;;5072792;28;20047;-84
2022/10/30 07:50:30;;;;;;;;;;;15.60;99.90;;;;;;5072493;28;20040;-87
2022/10/30 07:52:56;;;;;;;15.27;8.32;;;15.90;99.90;;;;;;5056064;28;20387;-87
2022/10/30 07:55:22;;;;;;;17.58;8.48;;;16.20;99.90;;;;;;5055139;28;20063;-85
2022/10/30 07:57:47;;;;;;;14.77;8.30;;;16.50;99.90;;;;;;5055442;28;20040;-86
2022/10/30 08:00:14;;;;;;;18.25;8.77;;;17.00;99.90;;;;;;5054989;28;20041;-90
2022/10/30 08:02:40;;;;;;;18.17;8.32;;;17.20;99.90;;;;;;5055824;28;20481;-91
2022/10/30 08:05:07;;;;;;;19.15;8.32;;;17.30;99.90;;;;;;5040223;28;20147;-90
2022/10/30 08:07:33;;;;;;;;;;;17.60;99.90;;;;;;5055614;28;20481;-90
2022/10/30 08:09:59;;;;;;;14.88;7.93;;;18.00;99.90;;;;;;5055265;28;19927;-85
2022/10/30 08:12:25;;;;;;;18.15;8.55;;;18.20;99.90;;;;;;5070987;28;20033;-88
2022/10/30 08:14:52;;;;;;;13.90;7.97;;;18.50;99.90;;;;;;5055186;28;20373;-86
2022/10/30 08:17:18;;;;;;;13.32;8.10;;;19.00;99.90;;;;;;5072826;28;20051;-86
2022/10/30 08:19:44;;;;;;;16.77;8.90;;;19.40;99.90;;;;;;5072816;28;20045;-87
2022/10/30 08:22:10;;;;;;;15.77;8.88;;;19.70;99.90;;;;;;5039647;28;20111;-87
2022/10/30 08:24:36;;;;;;;14.90;8.60;;;19.90;99.90;;;;;;5073356;28;20043;-86
2022/10/30 08:27:02;;;;;;;18.13;9.15;;;20.10;99.90;;;;;;5040128;28;20051;-87
2022/10/30 08:29:28;;;;;;;15.35;8.65;;;20.30;99.90;;;;;;5055792;28;20376;-86
2022/10/30 08:31:53;;;;;;;13.95;8.35;;;20.50;99.90;;;;;;5037955;28;20047;-83
2022/10/30 08:34:19;;;;;;;13.82;8.02;;;20.70;99.90;;;;;;5070915;28;20042;-83
2022/10/30 08:36:48;;;;;;;19.48;8.60;;;20.90;99.90;;;;;;5037832;28;20400;-83
2022/10/30 08:39:14;;;;;;;17.15;8.02;;;21.30;99.90;;;;;;5054972;28;20048;-83
2022/10/30 08:41:39;;;;;;;14.63;8.27;;;21.40;99.90;;;;;;5070820;28;20142;-83
2022/10/30 08:44:05;;;;;;;16.73;8.52;;;21.70;99.90;;;;;;5054557;28;20480;-84
2022/10/30 08:46:31;;;;;;;17.23;8.73;;;22.00;99.90;;;;;;5053888;28;20032;-83
2022/10/30 08:48:57;;;;;;;13.27;7.40;;;22.20;99.90;;;;;;5070772;28;20444;-83
2022/10/30 08:51:22;;;;;;;16.23;7.88;;;22.50;99.90;;;;;;5071084;28;20408;-83
2022/10/30 08:53:48;;;;;;;12.55;7.35;;;22.50;99.90;;;;;;5037333;28;20040;-83
2022/10/30 08:56:14;;;;;;;;;;;22.30;99.90;;;;;;5071619;28;20156;-84
2022/10/30 08:58:40;;;;;;;11.80;7.45;;;22.50;99.90;;;;;;5070431;28;19999;-83
2022/10/30 09:01:06;;;;;;;16.60;8.65;;;22.80;99.90;;;;;;5070822;28;20036;-83
2022/10/30 09:03:31;;;;;;;16.63;7.97;;;23.20;99.90;;;;;;5071779;28;20025;-83
2022/10/30 09:05:58;;;;;;;;;;;23.60;99.90;;;;;;5071628;28;20033;-83
2022/10/30 09:08:24;;;;;;;17.17;8.03;;;23.80;99.90;;;;;;5071442;28;20296;-83
2022/10/30 09:11:08;;;;;;;;;;;23.90;99.90;;;;;;5054434;28;20052;-84
2022/10/30 09:13:33;;;;;;;14.63;7.78;;;23.80;99.90;;;;;;5070865;28;20019;-83
2022/10/30 09:16:00;;;;;;;;;;;24.20;99.90;;;;;;5054919;28;20084;-83
2022/10/30 09:18:26;;;;;;;16.13;8.33;;;24.60;99.90;;;;;;5071328;28;19917;-84
2022/10/30 09:20:52;;;;;;;13.75;8.02;;;24.70;99.90;;;;;;5070760;28;20067;-84
2022/10/30 09:23:17;;;;;;;;;;;25.20;99.90;;;;;;5072161;28;20036;-84
2022/10/30 09:25:43;;;;;;;14.40;7.85;;;25.30;99.90;;;;;;5073278;28;19920;-84
2022/10/30 09:28:09;;;;;;;;;;;25.60;99.90;;;;;;5059346;28;20040;-84
2022/10/30 09:30:34;;;;;;;12.63;7.00;;;25.90;99.90;;;;;;5075099;28;19958;-84
2022/10/30 09:33:01;;;;;;;;;;;26.10;99.90;;;;;;5076089;28;20443;-84
2022/10/30 09:35:27;;;;;;;11.75;7.00;;;26.20;99.90;;;;;;5075425;28;19916;-84
2022/10/30 09:37:53;;;;;;;14.43;7.32;;;26.30;99.90;;;;;;5042029;28;20105;-84
2022/10/30 09:40:28;;;;;;;12.63;7.10;;;26.30;99.90;;;;;;5075340;28;20531;-84
2022/10/30 09:43:04;;;;;;;13.60;7.10;;;26.70;99.90;;;;;;5075007;28;20072;-84
2022/10/30 09:46:04;;;;;;;12.55;6.60;;;26.70;99.90;;;;;;5059370;28;20576;-84
2022/10/30 09:48:47;;;;;;;10.02;6.60;;;26.70;99.90;;;;;;5075123;28;20044;-84
2022/10/30 09:51:25;;;;;;;12.32;6.82;;;27.30;99.90;;;;;;5074802;28;20076;-84
2022/10/30 09:53:54;;;;;;;15.45;6.78;;;27.60;99.90;;;;;;5074818;28;20029;-85
2022/10/30 09:56:29;;;;;;;12.73;6.13;;;27.90;99.90;;;;;;5074481;28;20130;-84
2022/10/30 09:59:31;;;;;;;13.23;6.47;;;27.50;99.90;;;;;;5051206;28;20098;-84
2022/10/30 10:02:22;;;;;;;12.95;6.20;;;26.90;99.90;;;;;;5056414;28;20041;-83
2022/10/30 10:05:00;;;;;;;14.48;6.13;;;26.40;99.90;;;;;;5060224;28;20036;-84
2022/10/30 10:07:38;;;;;;;13.93;6.95;;;26.30;99.90;;;;;;5062403;28;20067;-84
2022/10/30 10:10:16;;;;;;;15.50;7.15;;;26.10;99.90;;;;;;5071781;28;20543;-84
2022/10/30 10:12:48;;;;;;;12.15;6.78;;;26.20;99.90;;;;;;5074657;28;20048;-84
2022/10/30 10:15:41;;;;;;;10.93;6.25;;;26.30;99.90;;;;;;5074684;28;20043;-84
2022/10/30 10:18:21;;;;;;;10.30;6.15;;;26.90;99.90;;;;;;5074947;28;20048;-84
2022/10/30 10:20:51;;;;;;;9.90;6.13;;;27.40;99.90;;;;;;5074800;28;20107;-84
2022/10/30 10:23:48;;;;;;;12.73;6.20;;;27.70;99.90;;;;;;5057965;28;20119;-84
2022/10/30 10:27:02;;;;;;;11.70;6.47;;;28.10;99.90;;;;;;5058125;28;20040;-83
2022/10/30 10:30:05;;;;;;;9.65;5.50;;;28.40;99.90;;;;;;5074898;28;20299;-83
2022/10/30 10:32:39;;;;;;;12.38;6.13;;;28.10;99.90;;;;;;5051837;28;20524;-83
2022/10/30 10:36:01;;;;;;;11.95;5.80;;;28.00;99.90;;;;;;5057448;28;20119;-84
2022/10/30 10:38:36;;;;;;;13.75;6.25;;;27.60;99.90;;;;;;5054565;28;20043;-83
2022/10/30 10:41:18;;;;;;;12.63;5.70;;;27.90;99.90;;;;;;5057503;28;20115;-83
2022/10/30 10:43:55;;;;;;;13.05;6.05;;;28.30;99.90;;;;;;5074292;28;20044;-83
2022/10/30 10:46:39;;;;;;;12.65;5.57;;;29.00;99.90;;;;;;5057341;28;20046;-83
2022/10/30 10:49:14;;;;;;;10.90;5.65;;;29.20;99.90;;;;;;5057182;28;20453;-83
2022/10/30 10:51:48;;;;;;;11.48;5.90;;;29.40;99.90;;;;;;5073755;28;20036;-83
2022/10/30 10:54:30;;;;;;;11.63;6.00;;;29.40;99.90;;;;;;5056956;28;20111;-83
2022/10/30 10:56:58;;;;;;;12.63;5.78;;;29.00;99.90;;;;;;5074349;28;20111;-83
2022/10/30 10:59:48;;;;;;;11.38;6.60;;;28.90;99.90;;;;;;5058508;28;20052;-83
2022/10/30 11:02:35;;;;;;;11.93;6.18;;;28.70;99.90;;;;;;5075237;28;20526;-83
2022/10/30 11:05:26;;;;;;;10.93;6.20;;;28.80;99.90;;;;;;5058256;28;20072;-82
2022/10/30 11:07:52;;;;;;;13.00;5.90;;;28.90;99.90;;;;;;5075133;28;20048;-83
2022/10/30 11:10:20;;;;;;;12.68;5.93;;;29.10;99.90;;;;;;5070142;28;20039;-83
2022/10/30 11:12:46;;;;;;;11.32;5.85;;;29.30;99.90;;;;;;5077836;28;20032;-83
2022/10/30 11:15:36;;;;;;;11.30;5.45;;;29.60;99.90;;;;;;5077589;28;20066;-83
2022/10/30 11:18:07;;;;;;;11.65;5.57;;;29.90;99.90;;;;;;5056776;28;20041;-83
2022/10/30 11:20:43;;;;;;;9.93;5.00;;;30.00;99.90;;;;;;5064046;28;20040;-82
2022/10/30 11:23:32;;;;;;;17.20;5.82;;;30.30;99.90;;;;;;5073190;28;20080;-83
2022/10/30 11:25:58;;;;;;;14.98;5.65;;;29.60;99.90;;;;;;5070857;28;20044;-83
2022/10/30 11:28:51;;;;;;;11.27;5.43;;;29.60;99.90;;;;;;5055951;28;20060;-83
2022/10/30 11:31:27;;;;;;;8.50;4.90;;;29.70;99.90;;;;;;5079364;28;20052;-83
2022/10/30 11:33:53;;;;;;;9.85;5.00;;;29.90;99.90;;;;;;5087118;28;20380;-82
2022/10/30 11:36:24;;;;;;;11.38;4.78;;;29.90;99.90;;;;;;5069868;28;20044;-82
2022/10/30 11:38:50;;;;;;;10.85;5.10;;;29.90;99.90;;;;;;5069897;28;20058;-82
2022/10/30 11:41:17;;;;;;;11.95;4.80;;;30.20;99.90;;;;;;5085943;28;20049;-82
2022/10/30 11:43:43;;;;;;;10.38;4.63;;;30.00;99.90;;;;;;5052659;28;20036;-84
2022/10/30 11:46:18;;;;;;;7.32;4.07;;;30.10;99.90;;;;;;5052864;28;20089;-83
2022/10/30 11:48:44;;;;;;;10.13;3.80;;;30.20;99.90;;;;;;5060689;28;20048;-83
2022/10/30 11:51:11;;;;;;;9.18;4.28;;;30.50;99.90;;;;;;5072771;28;20051;-83
2022/10/30 11:53:47;;;;;;;9.38;4.53;;;30.60;99.90;;;;;;5072722;28;20546;-83
2022/10/30 11:56:22;;;;;;;11.30;4.40;;;29.60;99.90;;;;;;5072709;28;20370;-83
2022/10/30 11:58:58;;;;;;;11.25;4.80;;;28.90;99.90;;;;;;5072552;28;20048;-83
2022/10/30 12:01:35;;;;;;;8.33;4.17;;;28.30;99.90;;;;;;5056937;28;20047;-83
2022/10/30 12:04:22;;;;;;;11.05;4.95;;;27.80;99.90;;;;;;5073426;28;20286;-90
2022/10/30 12:07:14;;;;;;;9.35;4.60;;;27.50;99.90;;;;;;5057724;28;20033;-90
2022/10/30 12:09:45;;;;;;;10.02;5.05;;;27.50;99.90;;;;;;5051699;28;20053;-92
2022/10/30 12:12:35;;;;;;;15.15;5.68;;;27.40;99.90;;;;;;5057248;28;20133;-88
2022/10/30 12:15:13;;;;;;;12.20;4.57;;;27.60;99.90;;;;;;5055251;28;20484;-86
2022/10/30 12:17:40;;;;;;;10.40;5.22;;;27.80;99.90;;;;;;5054148;28;20093;-88
2022/10/30 12:20:12;;;;;;;10.52;4.80;;;27.90;99.90;;;;;;5070223;28;20051;-88
2022/10/30 12:22:38;;;;;;;10.45;5.13;;;27.70;99.90;;;;;;5070965;28;20036;-90
2022/10/30 12:25:14;;;;;;;9.95;4.88;;;27.70;99.90;;;;;;5071508;28;20047;-88
2022/10/30 12:27:40;;;;;;;9.68;4.57;;;27.60;99.90;;;;;;5055414;28;20397;-88
2022/10/30 12:30:16;;;;;;;12.80;4.68;;;27.50;99.90;;;;;;5072284;28;20521;-91
2022/10/30 12:32:57;;;;;;;12.63;5.18;;;27.70;99.90;;;;;;5072260;28;20155;-91
2022/10/30 12:35:43;;;;;;;8.27;4.10;;;27.90;99.90;;;;;;5055255;28;20028;-91
2022/10/30 12:38:38;;;;;;;10.75;4.30;;;28.00;99.90;;;;;;5076259;28;20496;-94
2022/10/30 12:41:25;;;;;;;10.15;4.22;;;28.20;99.90;;;;;;5043809;28;20437;-93
2022/10/30 12:44:11;;;;;;;9.85;4.20;;;27.70;99.90;;;;;;5058515;28;20040;-93
2022/10/30 12:47:09;;;;;;;10.93;4.40;;;27.40;99.90;;;;;;5058278;28;20032;-94
2022/10/30 12:49:49;;;;;;;11.10;4.13;;;27.00;99.90;;;;;;5081660;28;20041;-96
2022/10/30 12:52:18;;;;;;;11.55;4.03;;;26.40;99.90;;;;;;5056238;28;20040;-91
2022/10/30 12:55:09;;;;;;;8.10;3.75;;;26.10;99.90;;;;;;5074343;28;20032;-89
2022/10/30 12:57:40;;;;;;;12.48;4.75;;;26.00;99.90;;;;;;5050072;28;20040;-85